Back to Top

Language: 

My Weather Underground Personal Weather Station Historical Data with Graphs...

Delerius Weather Station Historical Data
Daily Summary for June 9, 2017 Units:  Metric    English   Both
« Previous Day
Next Day »
Daily Weekly Monthly Yearly Custom
  High: Low: Average:
Temperature: 21.1 °C 10.3 °C 15.5 °C
Dew Point: 11.3 °C 8.6 °C 10.1 °C
Humidity: 90 % 47 % 72 %
Wind Speed: 20.9 km/h 0 km/h 9.7 km/h
Wind Gust: 37 km/h - -
Wind:- - WSW
Pressure: 1013.1 hPa 1002.9 hPa -
Precipitation: 0 mm    
Historical Graphs
 
 
Tabular Data for June 9, 2017
Time Temperature Dew Point Pressure Wind Wind Speed Wind Gust Humidity Rainfall Rate (Hourly) solar Conditions
00:04 13.1 °C 10.4 °C 1003.6 hPa SW 9.7 km/h 19.3 km/h 84 % 0 mm 0 W/m2
00:09 13 °C 10.3 °C 1003.6 hPa SW 6.4 km/h 16.1 km/h 84 % 0 mm 0 W/m2
00:14 12.9 °C 10.3 °C 1003.6 hPa WSW 3.2 km/h 9.7 km/h 84 % 0 mm 0 W/m2
00:19 12.8 °C 10.2 °C 1003.6 hPa WSW 3.2 km/h 9.7 km/h 84 % 0 mm 0 W/m2
00:24 12.7 °C 10.1 °C 1003.6 hPa WSW 3.2 km/h 9.7 km/h 84 % 0 mm 0 W/m2
00:29 12.6 °C 9.9 °C 1003.6 hPa SW 4.8 km/h 12.9 km/h 84 % 0 mm 0 W/m2
00:34 12.6 °C 10.2 °C 1003.6 hPa SSW 6.4 km/h 12.9 km/h 85 % 0 mm 0 W/m2
00:39 12.5 °C 10.1 °C 1003.6 hPa SSW 6.4 km/h 12.9 km/h 85 % 0 mm 0 W/m2
00:44 12.4 °C 9.9 °C 1003.3 hPa SSW 6.4 km/h 12.9 km/h 85 % 0 mm 0 W/m2
00:49 12.3 °C 9.8 °C 1003.3 hPa SSW 8 km/h 12.9 km/h 85 % 0 mm 0 W/m2
00:54 12.3 °C 10 °C 1003.3 hPa SSW 8 km/h 11.3 km/h 86 % 0 mm 0 W/m2
00:59 12.2 °C 9.9 °C 1002.9 hPa SSW 6.4 km/h 12.9 km/h 86 % 0 mm 0 W/m2
01:04 12.2 °C 9.9 °C 1002.9 hPa SSW 6.4 km/h 17.7 km/h 86 % 0 mm 0 W/m2
01:09 12.2 °C 9.9 °C 1002.9 hPa SSW 9.7 km/h 19.3 km/h 86 % 0 mm 0 W/m2
01:14 12.2 °C 9.9 °C 1003.3 hPa SW 8 km/h 19.3 km/h 86 % 0 mm 0 W/m2
01:19 12.2 °C 9.9 °C 1003.3 hPa SW 6.4 km/h 14.5 km/h 86 % 0 mm 0 W/m2
01:20 12.2 °C 9.9 °C 1002.9 hPa SW 6.4 km/h 14.5 km/h 86 % 0 mm 0 W/m2
01:25 12.2 °C 9.9 °C 1003.3 hPa SW 4.8 km/h 14.5 km/h 86 % 0 mm 0 W/m2
01:27 12.2 °C 9.9 °C 1002.9 hPa SW 4.8 km/h 14.5 km/h 86 % 0 mm 0 W/m2
01:32 12.2 °C 9.9 °C 1003.3 hPa SSW 4.8 km/h 14.5 km/h 86 % 0 mm 0 W/m2
01:37 12.2 °C 9.9 °C 1002.9 hPa South 4.8 km/h 14.5 km/h 86 % 0 mm 0 W/m2
01:42 12.2 °C 9.9 °C 1002.9 hPa South 4.8 km/h 9.7 km/h 86 % 0 mm 0 W/m2
01:47 12.1 °C 9.8 °C 1002.9 hPa SSE 3.2 km/h 9.7 km/h 86 % 0 mm 0 W/m2
01:52 11.9 °C 9.6 °C 1002.9 hPa SE 3.2 km/h 9.7 km/h 86 % 0 mm 0 W/m2
01:57 11.8 °C 9.7 °C 1002.9 hPa ESE 3.2 km/h 9.7 km/h 87 % 0 mm 0 W/m2
02:02 11.7 °C 9.6 °C 1002.9 hPa East 1.6 km/h 6.4 km/h 87 % 0 mm 0 W/m2
02:07 11.6 °C 9.5 °C 1003.3 hPa SE 1.6 km/h 6.4 km/h 87 % 0 mm 0 W/m2
02:12 11.4 °C 9.5 °C 1003.3 hPa ESE 1.6 km/h 6.4 km/h 88 % 0 mm 0 W/m2
02:17 11.4 °C 9.5 °C 1003.3 hPa NNE 1.6 km/h 6.4 km/h 88 % 0 mm 0 W/m2
02:22 11.3 °C 9.4 °C 1003.3 hPa NNE 1.6 km/h 8 km/h 88 % 0 mm 0 W/m2
02:27 11.2 °C 9.3 °C 1003.3 hPa NNE 1.6 km/h 8 km/h 88 % 0 mm 0 W/m2
02:32 11.1 °C 9.3 °C 1003.6 hPa NE 3.2 km/h 8 km/h 89 % 0 mm 0 W/m2
02:37 11 °C 9.3 °C 1003.6 hPa ENE 3.2 km/h 8 km/h 89 % 0 mm 0 W/m2
02:42 11 °C 9.3 °C 1003.3 hPa ENE 4.8 km/h 8 km/h 89 % 0 mm 0 W/m2
02:47 10.9 °C 9.3 °C 1003.6 hPa ENE 4.8 km/h 9.7 km/h 90 % 0 mm 0 W/m2
02:52 10.9 °C 9.3 °C 1003.6 hPa NE 3.2 km/h 9.7 km/h 90 % 0 mm 0 W/m2
02:57 10.9 °C 9.3 °C 1003.6 hPa NE 1.6 km/h 8 km/h 90 % 0 mm 0 W/m2
03:02 11 °C 9.4 °C 1003.6 hPa ENE 3.2 km/h 11.3 km/h 90 % 0 mm 0 W/m2
03:07 11 °C 9.4 °C 1003.6 hPa East 1.6 km/h 11.3 km/h 90 % 0 mm 0 W/m2
03:12 11 °C 9.4 °C 1003.6 hPa East 1.6 km/h 8 km/h 90 % 0 mm 0 W/m2
03:17 11 °C 9.3 °C 1003.6 hPa East 1.6 km/h 8 km/h 89 % 0 mm 0 W/m2
03:22 10.9 °C 9.2 °C 1003.6 hPa East 1.6 km/h 8 km/h 89 % 0 mm 0 W/m2
03:28 10.8 °C 9.1 °C 1003.6 hPa Calm   6.4 km/h 89 % 0 mm 0 W/m2
03:33 10.7 °C 9.1 °C 1003.6 hPa South 1.6 km/h 9.7 km/h 90 % 0 mm 0 W/m2
03:38 10.7 °C 8.9 °C 1003.6 hPa South 1.6 km/h 11.3 km/h 89 % 0 mm 0 W/m2
03:43 10.6 °C 8.9 °C 1003.6 hPa Calm   11.3 km/h 89 % 0 mm 0 W/m2
03:48 10.5 °C 8.9 °C 1003.6 hPa Calm   6.4 km/h 90 % 0 mm 0 W/m2
03:53 10.5 °C 8.9 °C 1003.6 hPa Calm   8 km/h 90 % 0 mm 0 W/m2
03:58 10.4 °C 8.8 °C 1003.6 hPa SW 1.6 km/h 8 km/h 90 % 0 mm 0 W/m2
04:03 10.4 °C 8.8 °C 1003.6 hPa SW 1.6 km/h 9.7 km/h 90 % 0 mm 0 W/m2
04:08 10.4 °C 8.8 °C 1003.6 hPa South 1.6 km/h 9.7 km/h 90 % 0 mm 0 W/m2
04:13 10.4 °C 8.8 °C 1003.6 hPa Calm   8 km/h 90 % 0 mm 0 W/m2
04:18 10.4 °C 8.7 °C 1003.9 hPa Calm   8 km/h 89 % 0 mm 0 W/m2
04:23 10.3 °C 8.6 °C 1003.9 hPa Calm   3.2 km/h 89 % 0 mm 0 W/m2
04:28 10.3 °C 8.7 °C 1003.9 hPa Calm   3.2 km/h 90 % 0 mm 0 W/m2
04:33 10.4 °C 8.8 °C 1003.9 hPa WSW 1.6 km/h 9.7 km/h 90 % 0 mm 0 W/m2
04:38 10.5 °C 8.9 °C 1003.9 hPa WSW 1.6 km/h 9.7 km/h 90 % 0 mm 5 W/m2
04:43 10.6 °C 8.9 °C 1003.6 hPa West 1.6 km/h 8 km/h 89 % 0 mm 5 W/m2
04:48 10.5 °C 8.8 °C 1003.9 hPa West 3.2 km/h 12.9 km/h 89 % 0 mm 7 W/m2
04:53 10.6 °C 8.9 °C 1003.9 hPa WSW 3.2 km/h 12.9 km/h 89 % 0 mm 9 W/m2
04:58 10.7 °C 8.9 °C 1004.3 hPa WSW 3.2 km/h 12.9 km/h 89 % 0 mm 11 W/m2
05:08 10.8 °C 9.1 °C 1004.3 hPa South 3.2 km/h 11.3 km/h 89 % 0 mm 18 W/m2
05:13 10.8 °C 9.1 °C 1004.3 hPa South 3.2 km/h 9.7 km/h 89 % 0 mm 28 W/m2
05:18 10.7 °C 8.9 °C 1004.3 hPa South 1.6 km/h 8 km/h 89 % 0 mm 33 W/m2
05:23 10.7 °C 8.9 °C 1004.3 hPa South 3.2 km/h 9.7 km/h 89 % 0 mm 32 W/m2
05:28 10.7 °C 8.9 °C 1004.3 hPa South 4.8 km/h 12.9 km/h 89 % 0 mm 32 W/m2
05:33 10.7 °C 9.1 °C 1004.3 hPa SSW 6.4 km/h 12.9 km/h 90 % 0 mm 63 W/m2
05:39 10.8 °C 9.2 °C 1004.3 hPa SSW 4.8 km/h 11.3 km/h 90 % 0 mm 65 W/m2
05:44 10.8 °C 9.2 °C 1004.3 hPa SSW 1.6 km/h 11.3 km/h 90 % 0 mm 58 W/m2
05:50 10.9 °C 9.3 °C 1004.3 hPa SW 3.2 km/h 11.3 km/h 90 % 0 mm 54 W/m2
05:55 11.1 °C 9.5 °C 1004.3 hPa SW 6.4 km/h 11.3 km/h 90 % 0 mm 105 W/m2
06:00 11.2 °C 9.6 °C 1004.3 hPa SW 4.8 km/h 11.3 km/h 90 % 0 mm 130 W/m2
06:05 11.3 °C 9.7 °C 1004.3 hPa Calm   3.2 km/h 90 % 0 mm 114 W/m2
06:10 11.5 °C 9.9 °C 1004.6 hPa SW 1.6 km/h 6.4 km/h 90 % 0 mm 70 W/m2
06:15 11.6 °C 9.8 °C 1004.6 hPa SW 4.8 km/h 14.5 km/h 89 % 0 mm 39 W/m2
06:20 11.7 °C 9.8 °C 1004.6 hPa SW 8 km/h 17.7 km/h 88 % 0 mm 33 W/m2
06:25 11.7 °C 9.8 °C 1004.6 hPa SW 9.7 km/h 17.7 km/h 88 % 0 mm 33 W/m2
06:30 11.7 °C 9.8 °C 1004.6 hPa SW 11.3 km/h 20.9 km/h 88 % 0 mm 58 W/m2
06:31 11.7 °C 9.8 °C 1004.6 hPa SW 11.3 km/h 20.9 km/h 88 % 0 mm 62 W/m2
06:36 11.7 °C 9.8 °C 1004.6 hPa SW 12.9 km/h 20.9 km/h 88 % 0 mm 67 W/m2
06:41 11.8 °C 9.9 °C 1004.6 hPa SW 11.3 km/h 19.3 km/h 88 % 0 mm 74 W/m2
06:46 11.9 °C 10 °C 1004.6 hPa SW 12.9 km/h 22.5 km/h 88 % 0 mm 104 W/m2
06:51 12.1 °C 10.2 °C 1004.6 hPa SW 12.9 km/h 22.5 km/h 88 % 0 mm 90 W/m2
06:56 12.2 °C 10.3 °C 1004.6 hPa SW 11.3 km/h 22.5 km/h 88 % 0 mm 104 W/m2
07:01 12.3 °C 10.2 °C 1004.6 hPa SW 11.3 km/h 20.9 km/h 87 % 0 mm 125 W/m2
07:06 12.6 °C 10.3 °C 1004.6 hPa SW 14.5 km/h 25.7 km/h 86 % 0 mm 125 W/m2
07:11 12.8 °C 10.3 °C 1004.6 hPa SW 14.5 km/h 25.7 km/h 85 % 0 mm 135 W/m2
07:16 12.9 °C 10.4 °C 1005 hPa SW 12.9 km/h 22.5 km/h 85 % 0 mm 149 W/m2
07:21 13 °C 10.6 °C 1005 hPa SW 14.5 km/h 22.5 km/h 85 % 0 mm 309 W/m2
07:26 13.2 °C 10.6 °C 1005 hPa SW 12.9 km/h 22.5 km/h 84 % 0 mm 329 W/m2
07:31 13.4 °C 10.8 °C 1005 hPa SW 12.9 km/h 22.5 km/h 84 % 0 mm 373 W/m2
07:36 13.5 °C 10.7 °C 1005 hPa SW 14.5 km/h 22.5 km/h 83 % 0 mm 144 W/m2
07:41 13.6 °C 10.6 °C 1005 hPa SW 16.1 km/h 22.5 km/h 82 % 0 mm 230 W/m2
07:46 13.7 °C 10.7 °C 1005 hPa SW 16.1 km/h 25.7 km/h 82 % 0 mm 381 W/m2
07:51 13.9 °C 10.7 °C 1005 hPa SW 14.5 km/h 25.7 km/h 81 % 0 mm 179 W/m2
07:56 14.1 °C 10.7 °C 1005.3 hPa WSW 14.5 km/h 29 km/h 80 % 0 mm 221 W/m2
08:01 14.1 °C 10.5 °C 1005.3 hPa WSW 14.5 km/h 29 km/h 79 % 0 mm 146 W/m2
08:06 14.1 °C 10.5 °C 1005.3 hPa WSW 11.3 km/h 19.3 km/h 79 % 0 mm 139 W/m2
08:11 14.1 °C 10.5 °C 1005.3 hPa SW 11.3 km/h 24.1 km/h 79 % 0 mm 162 W/m2
08:16 14 °C 10.4 °C 1005.3 hPa SW 12.9 km/h 24.1 km/h 79 % 0 mm 297 W/m2
08:21 14.1 °C 10.5 °C 1005.3 hPa SW 12.9 km/h 24.1 km/h 79 % 0 mm 163 W/m2
08:26 14.2 °C 10.6 °C 1005.3 hPa WSW 12.9 km/h 24.1 km/h 79 % 0 mm 218 W/m2
08:31 14.4 °C 10.8 °C 1005.3 hPa WSW 11.3 km/h 20.9 km/h 79 % 0 mm 199 W/m2
08:37 14.6 °C 10.6 °C 1005.6 hPa SW 12.9 km/h 30.6 km/h 77 % 0 mm 253 W/m2
08:42 14.6 °C 10.6 °C 1005.3 hPa SW 16.1 km/h 30.6 km/h 77 % 0 mm 309 W/m2
08:47 14.8 °C 10.8 °C 1005.3 hPa SW 16.1 km/h 30.6 km/h 77 % 0 mm 311 W/m2
08:52 14.9 °C 10.9 °C 1005.6 hPa SW 14.5 km/h 29 km/h 77 % 0 mm 178 W/m2
08:57 14.8 °C 10.2 °C 1005.6 hPa WSW 16.1 km/h 32.2 km/h 74 % 0 mm 178 W/m2
09:02 14.8 °C 10.6 °C 1005.6 hPa WSW 14.5 km/h 32.2 km/h 76 % 0 mm 696 W/m2
09:07 15 °C 10.6 °C 1005.6 hPa WSW 14.5 km/h 25.7 km/h 75 % 0 mm 765 W/m2
09:12 15.3 °C 10.5 °C 1006 hPa WSW 17.7 km/h 33.8 km/h 73 % 0 mm 768 W/m2
09:17 15.4 °C 9.9 °C 1006 hPa WSW 20.9 km/h 33.8 km/h 70 % 0 mm 418 W/m2
09:22 15.4 °C 9.9 °C 1005.6 hPa WSW 19.3 km/h 30.6 km/h 70 % 0 mm 241 W/m2
09:27 15.3 °C 9.8 °C 1005.6 hPa WSW 16.1 km/h 29 km/h 70 % 0 mm 812 W/m2
09:32 15.7 °C 10.4 °C 1005.6 hPa WSW 16.1 km/h 29 km/h 71 % 0 mm 779 W/m2
09:37 15.9 °C 10.2 °C 1006 hPa WSW 16.1 km/h 29 km/h 69 % 0 mm 740 W/m2
09:42 16 °C 9.9 °C 1005.6 hPa WSW 17.7 km/h 30.6 km/h 67 % 0 mm 742 W/m2
09:47 16 °C 9.9 °C 1006 hPa WSW 19.3 km/h 30.6 km/h 67 % 0 mm 176 W/m2
09:52 16 °C 9.9 °C 1006 hPa WSW 19.3 km/h 32.2 km/h 67 % 0 mm 828 W/m2
09:57 16.2 °C 10.3 °C 1005.6 hPa WSW 17.7 km/h 32.2 km/h 68 % 0 mm 752 W/m2
10:02 16.4 °C 10.3 °C 1005.6 hPa SW 17.7 km/h 29 km/h 67 % 0 mm 724 W/m2
10:07 16.7 °C 10.6 °C 1006 hPa WSW 17.7 km/h 25.7 km/h 67 % 0 mm 731 W/m2
10:12 17 °C 10.6 °C 1006 hPa WSW 17.7 km/h 35.4 km/h 66 % 0 mm 747 W/m2
10:17 17.1 °C 10.2 °C 1006 hPa WSW 17.7 km/h 35.4 km/h 64 % 0 mm 809 W/m2
10:22 17.3 °C 10.4 °C 1006 hPa West 17.7 km/h 33.8 km/h 64 % 0 mm 907 W/m2
10:27 17.2 °C 10.1 °C 1006 hPa West 17.7 km/h 35.4 km/h 63 % 0 mm 186 W/m2
10:32 16.9 °C 10.1 °C 1006.3 hPa West 16.1 km/h 35.4 km/h 64 % 0 mm 265 W/m2
10:37 16.9 °C 10.3 °C 1006.3 hPa WSW 12.9 km/h 24.1 km/h 65 % 0 mm 262 W/m2
10:42 17.1 °C 10.4 °C 1006.3 hPa WSW 12.9 km/h 24.1 km/h 65 % 0 mm 849 W/m2
10:47 17.3 °C 10.2 °C 1006.3 hPa WSW 12.9 km/h 25.7 km/h 63 % 0 mm 868 W/m2
10:52 17.6 °C 10 °C 1006.3 hPa WSW 14.5 km/h 30.6 km/h 61 % 0 mm 847 W/m2
10:57 17.9 °C 10.5 °C 1006.3 hPa WSW 14.5 km/h 30.6 km/h 62 % 0 mm 958 W/m2
11:02 18.3 °C 10.4 °C 1006.3 hPa WSW 14.5 km/h 22.5 km/h 60 % 0 mm 965 W/m2
11:07 18.5 °C 10.6 °C 1006.3 hPa WSW 12.9 km/h 22.5 km/h 60 % 0 mm 965 W/m2
11:12 18.7 °C 10.3 °C 1006.3 hPa West 14.5 km/h 24.1 km/h 58 % 0 mm 918 W/m2
11:17 18.6 °C 9.9 °C 1006.3 hPa West 16.1 km/h 24.1 km/h 57 % 0 mm 274 W/m2
11:22 18.1 °C 9.9 °C 1006.3 hPa WSW 17.7 km/h 25.7 km/h 59 % 0 mm 1041 W/m2
11:27 18.1 °C 10.2 °C 1006.3 hPa WSW 17.7 km/h 25.7 km/h 60 % 0 mm 1049 W/m2
11:32 18.2 °C 10.1 °C 1006.3 hPa WSW 17.7 km/h 32.2 km/h 59 % 0 mm 399 W/m2
11:37 18.1 °C 10.2 °C 1006.7 hPa SW 17.7 km/h 32.2 km/h 60 % 0 mm 404 W/m2
11:42 18.3 °C 9.9 °C 1006.7 hPa WSW 16.1 km/h 25.7 km/h 58 % 0 mm 241 W/m2
11:47 18.6 °C 10.4 °C 1006.7 hPa West 16.1 km/h 25.7 km/h 59 % 0 mm 951 W/m2
11:53 18.7 °C 10 °C 1006.7 hPa West 16.1 km/h 25.7 km/h 57 % 0 mm 900 W/m2
11:58 18.9 °C 9.9 °C 1006.7 hPa West 14.5 km/h 24.1 km/h 56 % 0 mm 353 W/m2
12:03 18.7 °C 9.7 °C 1006.7 hPa West 17.7 km/h 32.2 km/h 56 % 0 mm 320 W/m2
12:08 18.4 °C 10 °C 1007 hPa West 19.3 km/h 32.2 km/h 58 % 0 mm 339 W/m2
12:13 18.1 °C 9.7 °C 1007 hPa WSW 17.7 km/h 37 km/h 58 % 0 mm 200 W/m2
12:18 17.8 °C 10.2 °C 1007 hPa West 17.7 km/h 37 km/h 61 % 0 mm 192 W/m2
12:23 17.6 °C 10.4 °C 1007.3 hPa WNW 17.7 km/h 30.6 km/h 63 % 0 mm 137 W/m2
12:24 17.6 °C 10.4 °C 1007.3 hPa WNW 16.1 km/h 30.6 km/h 63 % 0 mm 135 W/m2
12:29 17.3 °C 10.7 °C 1007.3 hPa WNW 16.1 km/h 30.6 km/h 65 % 0 mm 167 W/m2
12:34 17.2 °C 10.8 °C 1007.3 hPa WNW 14.5 km/h 24.1 km/h 66 % 0 mm 258 W/m2
12:39 17.2 °C 10.8 °C 1007.3 hPa WNW 12.9 km/h 24.1 km/h 66 % 0 mm 311 W/m2
12:44 17.2 °C 10.8 °C 1007.3 hPa WNW 12.9 km/h 22.5 km/h 66 % 0 mm 330 W/m2
12:49 17.3 °C 10.7 °C 1007.3 hPa WNW 12.9 km/h 20.9 km/h 65 % 0 mm 388 W/m2
12:54 17.6 °C 10.9 °C 1007.3 hPa WNW 11.3 km/h 20.9 km/h 65 % 0 mm 346 W/m2
12:59 17.8 °C 10.9 °C 1007.7 hPa West 11.3 km/h 25.7 km/h 64 % 0 mm 302 W/m2
13:04 17.8 °C 10.9 °C 1007.7 hPa West 14.5 km/h 29 km/h 64 % 0 mm 1204 W/m2
13:09 18.2 °C 11.3 °C 1007.7 hPa West 14.5 km/h 29 km/h 64 % 0 mm 524 W/m2
13:14 18.4 °C 10.7 °C 1007.7 hPa West 12.9 km/h 22.5 km/h 61 % 0 mm 353 W/m2
13:19 18.3 °C 10.9 °C 1007.7 hPa West 12.9 km/h 24.1 km/h 62 % 0 mm 183 W/m2
13:24 18.1 °C 10.7 °C 1008 hPa West 16.1 km/h 30.6 km/h 62 % 0 mm 251 W/m2
13:29 17.9 °C 9.8 °C 1008 hPa WNW 19.3 km/h 35.4 km/h 59 % 0 mm 214 W/m2
13:34 17.7 °C 9.6 °C 1008 hPa WNW 19.3 km/h 35.4 km/h 59 % 0 mm 174 W/m2
13:39 17.3 °C 9.4 °C 1008 hPa West 19.3 km/h 32.2 km/h 60 % 0 mm 142 W/m2
13:44 17.1 °C 9.5 °C 1008.4 hPa West 19.3 km/h 30.6 km/h 61 % 0 mm 199 W/m2
13:49 17 °C 9.9 °C 1008 hPa West 16.1 km/h 25.7 km/h 63 % 0 mm 257 W/m2
13:54 17.1 °C 9.5 °C 1008.4 hPa West 16.1 km/h 32.2 km/h 61 % 0 mm 272 W/m2
13:59 17.2 °C 9.8 °C 1008.4 hPa West 14.5 km/h 32.2 km/h 62 % 0 mm 367 W/m2
14:04 17.4 °C 10.1 °C 1008.4 hPa West 9.7 km/h 19.3 km/h 62 % 0 mm 478 W/m2
14:09 17.8 °C 10.2 °C 1008.4 hPa West 11.3 km/h 25.7 km/h 61 % 0 mm 471 W/m2
14:14 18.2 °C 9.6 °C 1008.4 hPa West 16.1 km/h 29 km/h 57 % 0 mm 418 W/m2
14:20 18.5 °C 9.8 °C 1008.4 hPa West 16.1 km/h 30.6 km/h 57 % 0 mm 1078 W/m2
14:25 19.1 °C 10.4 °C 1008.4 hPa West 16.1 km/h 32.2 km/h 57 % 0 mm 949 W/m2
14:30 19.4 °C 10.9 °C 1008.4 hPa West 16.1 km/h 32.2 km/h 58 % 0 mm 186 W/m2
14:35 19.6 °C 10.6 °C 1008.7 hPa West 16.1 km/h 32.2 km/h 56 % 0 mm 868 W/m2
14:40 19.7 °C 10.4 °C 1008.7 hPa WNW 16.1 km/h 32.2 km/h 55 % 0 mm 976 W/m2
14:45 19.9 °C 10.3 °C 1008.7 hPa WNW 16.1 km/h 29 km/h 54 % 0 mm 919 W/m2
14:50 20 °C 10.4 °C 1008.7 hPa WNW 16.1 km/h 29 km/h 54 % 0 mm 872 W/m2
14:55 20.1 °C 9.9 °C 1009 hPa West 17.7 km/h 30.6 km/h 52 % 0 mm 879 W/m2
15:00 20.1 °C 10.2 °C 1009 hPa West 17.7 km/h 30.6 km/h 53 % 0 mm 882 W/m2
15:05 20.3 °C 10.1 °C 1009 hPa West 16.1 km/h 25.7 km/h 52 % 0 mm 891 W/m2
15:10 20.1 °C 9.7 °C 1009 hPa West 16.1 km/h 25.7 km/h 51 % 0 mm 373 W/m2
15:15 20 °C 10.4 °C 1009 hPa West 14.5 km/h 24.1 km/h 54 % 0 mm 295 W/m2
15:20 20 °C 10.1 °C 1009 hPa West 12.9 km/h 22.5 km/h 53 % 0 mm 1021 W/m2
15:25 20.1 °C 10.2 °C 1009 hPa West 14.5 km/h 22.5 km/h 53 % 0 mm 211 W/m2
15:30 19.9 °C 10.1 °C 1009 hPa West 14.5 km/h 25.7 km/h 53 % 0 mm 854 W/m2
15:35 20.2 °C 10 °C 1009 hPa West 14.5 km/h 29 km/h 52 % 0 mm 823 W/m2
15:40 20.3 °C 9.6 °C 1009 hPa West 16.1 km/h 29 km/h 50 % 0 mm 793 W/m2
15:45 20.3 °C 9.8 °C 1009 hPa West 14.5 km/h 29 km/h 51 % 0 mm 780 W/m2
15:50 20.6 °C 9.5 °C 1009 hPa West 14.5 km/h 22.5 km/h 49 % 0 mm 826 W/m2
15:55 20.6 °C 9.8 °C 1009.4 hPa West 14.5 km/h 24.1 km/h 50 % 0 mm 810 W/m2
16:00 20.7 °C 9 °C 1009 hPa West 14.5 km/h 24.1 km/h 47 % 0 mm 809 W/m2
16:05 20.8 °C 9.1 °C 1009.4 hPa West 14.5 km/h 29 km/h 47 % 0 mm 831 W/m2
16:10 21.1 °C 9.3 °C 1009.4 hPa WNW 14.5 km/h 29 km/h 47 % 0 mm 246 W/m2
16:15 20.9 °C 9.5 °C 1009.4 hPa West 14.5 km/h 29 km/h 48 % 0 mm 817 W/m2
16:21 20.8 °C 9.4 °C 1009.4 hPa West 12.9 km/h 25.7 km/h 48 % 0 mm 197 W/m2
16:26 20.7 °C 9.3 °C 1009.4 hPa West 12.9 km/h 25.7 km/h 48 % 0 mm 213 W/m2
16:31 20.7 °C 9.3 °C 1009.4 hPa WNW 12.9 km/h 25.7 km/h 48 % 0 mm 156 W/m2
16:36 20.6 °C 9.5 °C 1009.7 hPa WNW 12.9 km/h 29 km/h 49 % 0 mm 188 W/m2
16:41 20.4 °C 9.3 °C 1009.7 hPa WNW 11.3 km/h 29 km/h 49 % 0 mm 211 W/m2
16:46 20.5 °C 9.7 °C 1009.7 hPa WNW 8 km/h 22.5 km/h 50 % 0 mm 221 W/m2
16:51 20.4 °C 9.3 °C 1009.7 hPa West 12.9 km/h 24.1 km/h 49 % 0 mm 729 W/m2
16:56 20.4 °C 9.6 °C 1009.7 hPa West 16.1 km/h 24.1 km/h 50 % 0 mm 675 W/m2
17:01 20.6 °C 10.1 °C 1010 hPa West 14.5 km/h 24.1 km/h 51 % 0 mm 232 W/m2
17:06 20.7 °C 10.2 °C 1010 hPa WNW 14.5 km/h 25.7 km/h 51 % 0 mm 635 W/m2
17:11 20.9 °C 10.7 °C 1010 hPa West 11.3 km/h 25.7 km/h 52 % 0 mm 610 W/m2
17:16 21.1 °C 9.9 °C 1010 hPa WNW 11.3 km/h 25.7 km/h 49 % 0 mm 171 W/m2
17:21 20.9 °C 10.1 °C 1010 hPa WNW 14.5 km/h 25.7 km/h 50 % 0 mm 531 W/m2
17:26 20.8 °C 10.6 °C 1010 hPa WNW 14.5 km/h 24.1 km/h 52 % 0 mm 503 W/m2
17:31 20.7 °C 10.5 °C 1010 hPa WNW 14.5 km/h 25.7 km/h 52 % 0 mm 462 W/m2
17:36 20.7 °C 10.8 °C 1010 hPa WNW 16.1 km/h 25.7 km/h 53 % 0 mm 357 W/m2
17:41 20.6 °C 10.7 °C 1010 hPa WNW 14.5 km/h 25.7 km/h 53 % 0 mm 390 W/m2
17:46 20.6 °C 10.7 °C 1010.4 hPa WNW 14.5 km/h 29 km/h 53 % 0 mm 348 W/m2
17:51 20.3 °C 10.7 °C 1010.4 hPa West 14.5 km/h 29 km/h 54 % 0 mm 304 W/m2
17:56 20.1 °C 11.1 °C 1010.4 hPa West 12.9 km/h 22.5 km/h 56 % 0 mm 357 W/m2
18:01 20 °C 10.9 °C 1010.4 hPa West 12.9 km/h 22.5 km/h 56 % 0 mm 323 W/m2
18:06 20 °C 10.7 °C 1010.4 hPa West 14.5 km/h 20.9 km/h 55 % 0 mm 320 W/m2
18:07 20 °C 10.7 °C 1010.4 hPa West 14.5 km/h 20.9 km/h 55 % 0 mm 338 W/m2
18:12 20 °C 10.7 °C 1010.4 hPa WNW 14.5 km/h 20.9 km/h 55 % 0 mm 320 W/m2
18:17 20.1 °C 11.1 °C 1010.4 hPa WNW 11.3 km/h 20.9 km/h 56 % 0 mm 304 W/m2
18:23 20.1 °C 11.1 °C 1010.4 hPa WNW 12.9 km/h 20.9 km/h 56 % 0 mm 304 W/m2
18:28 19.9 °C 10.8 °C 1010.4 hPa WNW 12.9 km/h 20.9 km/h 56 % 0 mm 251 W/m2
18:33 19.8 °C 11.1 °C 1010.4 hPa WNW 12.9 km/h 22.5 km/h 57 % 0 mm 251 W/m2
18:38 19.8 °C 11.1 °C 1010.4 hPa WNW 12.9 km/h 22.5 km/h 57 % 0 mm 214 W/m2
18:43 19.6 °C 10.6 °C 1010.7 hPa WNW 12.9 km/h 20.9 km/h 56 % 0 mm 199 W/m2
18:48 19.3 °C 10.6 °C 1010.7 hPa West 12.9 km/h 20.9 km/h 57 % 0 mm 176 W/m2
18:53 19.2 °C 11 °C 1010.7 hPa West 11.3 km/h 20.9 km/h 59 % 0 mm 179 W/m2
18:58 19.1 °C 10.7 °C 1010.7 hPa West 12.9 km/h 24.1 km/h 58 % 0 mm 171 W/m2
19:03 19 °C 10.8 °C 1010.7 hPa West 11.3 km/h 24.1 km/h 59 % 0 mm 151 W/m2
19:08 19 °C 11.1 °C 1010.7 hPa West 8 km/h 16.1 km/h 60 % 0 mm 139 W/m2
19:13 18.9 °C 10.9 °C 1011.1 hPa West 9.7 km/h 19.3 km/h 60 % 0 mm 139 W/m2
19:18 18.8 °C 11.1 °C 1011.1 hPa West 9.7 km/h 19.3 km/h 61 % 0 mm 135 W/m2
19:23 18.7 °C 11 °C 1011.1 hPa WNW 8 km/h 17.7 km/h 61 % 0 mm 127 W/m2
19:28 18.6 °C 10.9 °C 1011.1 hPa WNW 9.7 km/h 17.7 km/h 61 % 0 mm 113 W/m2
19:33 18.4 °C 11 °C 1011.1 hPa WNW 9.7 km/h 17.7 km/h 62 % 0 mm 104 W/m2
19:38 18.3 °C 10.9 °C 1011.1 hPa WNW 11.3 km/h 20.9 km/h 62 % 0 mm 97 W/m2
19:43 18.2 °C 11.1 °C 1011.4 hPa WNW 9.7 km/h 20.9 km/h 63 % 0 mm 102 W/m2
19:53 18 °C 10.8 °C 1011.4 hPa WNW 9.7 km/h 17.7 km/h 63 % 0 mm 83 W/m2
19:58 17.9 °C 10.8 °C 1011.4 hPa WNW 9.7 km/h 16.1 km/h 63 % 0 mm 74 W/m2
20:03 17.8 °C 10.9 °C 1011.4 hPa WNW 11.3 km/h 17.7 km/h 64 % 0 mm 69 W/m2
20:08 17.7 °C 11.1 °C 1011.4 hPa WNW 9.7 km/h 17.7 km/h 65 % 0 mm 65 W/m2
20:13 17.6 °C 10.9 °C 1011.4 hPa WNW 8 km/h 12.9 km/h 65 % 0 mm 58 W/m2
20:18 17.4 °C 10.7 °C 1011.4 hPa WNW 8 km/h 12.9 km/h 65 % 0 mm 53 W/m2
20:23 17.3 °C 10.9 °C 1011.4 hPa WNW 8 km/h 14.5 km/h 66 % 0 mm 47 W/m2
20:28 17.2 °C 11 °C 1011.4 hPa West 6.4 km/h 14.5 km/h 67 % 0 mm 47 W/m2
20:33 17.1 °C 10.9 °C 1011.4 hPa West 4.8 km/h 11.3 km/h 67 % 0 mm 51 W/m2
20:38 17 °C 11.1 °C 1011.7 hPa West 3.2 km/h 8 km/h 68 % 0 mm 53 W/m2
20:43 16.9 °C 11.2 °C 1011.7 hPa West 3.2 km/h 8 km/h 69 % 0 mm 46 W/m2
20:48 16.8 °C 11.1 °C 1011.7 hPa West 1.6 km/h 8 km/h 69 % 0 mm 37 W/m2
20:54 16.7 °C 11.2 °C 1011.4 hPa West 3.2 km/h 9.7 km/h 70 % 0 mm 32 W/m2
20:59 16.6 °C 11.1 °C 1011.7 hPa West 4.8 km/h 9.7 km/h 70 % 0 mm 25 W/m2
21:04 16.5 °C 11 °C 1011.7 hPa West 4.8 km/h 11.3 km/h 70 % 0 mm 18 W/m2
21:09 16.3 °C 11.1 °C 1011.7 hPa West 6.4 km/h 11.3 km/h 71 % 0 mm 14 W/m2
21:14 16.2 °C 10.9 °C 1011.7 hPa West 4.8 km/h 11.3 km/h 71 % 0 mm 11 W/m2
21:15 16.2 °C 11.2 °C 1011.7 hPa West 3.2 km/h 9.7 km/h 72 % 0 mm 11 W/m2
21:20 16.1 °C 11.1 °C 1011.7 hPa West 1.6 km/h 6.4 km/h 72 % 0 mm 7 W/m2
21:25 15.9 °C 11.1 °C 1012.1 hPa West 1.6 km/h 3.2 km/h 73 % 0 mm 0 W/m2
21:30 15.7 °C 11.1 °C 1012.1 hPa Calm   3.2 km/h 74 % 0 mm 0 W/m2
21:35 15.6 °C 11.2 °C 1012.1 hPa Calm   4.8 km/h 75 % 0 mm 0 W/m2
21:40 15.4 °C 11.2 °C 1012.1 hPa Calm   4.8 km/h 76 % 0 mm 0 W/m2
21:45 15.2 °C 11 °C 1012.1 hPa Calm   6.4 km/h 76 % 0 mm 0 W/m2
21:50 15.1 °C 11.1 °C 1012.1 hPa Calm   6.4 km/h 77 % 0 mm 0 W/m2
21:55 14.9 °C 10.9 °C 1012.1 hPa West 1.6 km/h 8 km/h 77 % 0 mm 0 W/m2
22:00 14.7 °C 10.9 °C 1012.4 hPa West 3.2 km/h 8 km/h 78 % 0 mm 0 W/m2
22:05 14.6 °C 11 °C 1012.4 hPa West 4.8 km/h 8 km/h 79 % 0 mm 0 W/m2
22:10 14.4 °C 10.8 °C 1012.4 hPa West 6.4 km/h 9.7 km/h 79 % 0 mm 0 W/m2
22:16 14.2 °C 10.6 °C 1012.4 hPa West 6.4 km/h 9.7 km/h 79 % 0 mm 0 W/m2
22:21 14.1 °C 10.7 °C 1012.4 hPa West 4.8 km/h 9.7 km/h 80 % 0 mm 0 W/m2
22:26 13.8 °C 10.4 °C 1012.8 hPa West 4.8 km/h 8 km/h 80 % 0 mm 0 W/m2
22:31 13.7 °C 10.5 °C 1012.4 hPa West 3.2 km/h 8 km/h 81 % 0 mm 0 W/m2
22:36 13.5 °C 10.3 °C 1012.8 hPa West 3.2 km/h 8 km/h 81 % 0 mm 0 W/m2
22:41 13.3 °C 10.1 °C 1012.8 hPa West 1.6 km/h 6.4 km/h 81 % 0 mm 0 W/m2
22:46 13.2 °C 10 °C 1012.8 hPa Calm   6.4 km/h 81 % 0 mm 0 W/m2
22:51 13.1 °C 9.9 °C 1012.8 hPa Calm   1.6 km/h 81 % 0 mm 0 W/m2
22:53 13.1 °C 9.9 °C 1012.8 hPa Calm   1.6 km/h 81 % 0 mm 0 W/m2
22:58 12.9 °C 9.7 °C 1012.8 hPa Calm   1.6 km/h 81 % 0 mm 0 W/m2
23:03 12.8 °C 9.6 °C 1012.8 hPa Calm   1.6 km/h 81 % 0 mm 0 W/m2
23:08 12.8 °C 9.8 °C 1012.8 hPa Calm   3.2 km/h 82 % 0 mm 0 W/m2
23:13 12.9 °C 9.7 °C 1012.8 hPa West 1.6 km/h 9.7 km/h 81 % 0 mm 0 W/m2
23:18 13.1 °C 9.7 °C 1012.8 hPa West 4.8 km/h 11.3 km/h 80 % 0 mm 0 W/m2
23:23 13.1 °C 9.6 °C 1012.8 hPa WSW 4.8 km/h 11.3 km/h 79 % 0 mm 0 W/m2
23:28 13.1 °C 9.6 °C 1012.8 hPa WSW 4.8 km/h 9.7 km/h 79 % 0 mm 0 W/m2
23:33 13.1 °C 9.6 °C 1012.8 hPa WSW 4.8 km/h 9.7 km/h 79 % 0 mm 0 W/m2
23:38 13 °C 9.4 °C 1013.1 hPa West 6.4 km/h 9.7 km/h 79 % 0 mm 0 W/m2
23:43 12.9 °C 9.2 °C 1012.8 hPa West 6.4 km/h 9.7 km/h 78 % 0 mm 0 W/m2
23:48 12.9 °C 9.3 °C 1013.1 hPa West 4.8 km/h 9.7 km/h 79 % 0 mm 0 W/m2
23:53 12.8 °C 9.2 °C 1013.1 hPa West 3.2 km/h 8 km/h 79 % 0 mm 0 W/m2
23:58 12.7 °C 9.2 °C 1013.1 hPa West 1.6 km/h 6.4 km/h 79 % 0 mm 0 W/m2
Delerius-Weather
Compliments of Weather Underground - 2.25 mb

Data updates at regular intervals.